Time;durP1;ratioP1;P1;durP2;ratioP2;P2;SDS_P1;SDS_P2;PMS_P1;PMS_P2;Temp;Humidity;BMP_temperature;BMP_pressure;BME280_temperature;BME280_humidity;BME280_pressure;Samples;Min_cycle;Max_cycle;Signal;HPM_P1;HPM_P2
2021/03/25 00:00:37;;;;;;;56.88;20.10;;;;;;;;;;5063261;28;20453;-59
2021/03/25 00:03:07;;;;;;;55.38;20.38;;;;;;;;;;5070585;28;20114;-59
2021/03/25 00:05:33;;;;;;;62.78;19.08;;;;;;;;;;5065742;28;20154;-59
2021/03/25 00:07:59;;;;;;;64.05;21.95;;;;;;;;;;5062120;28;20045;-59
2021/03/25 00:10:32;;;;;;;66.30;21.92;;;;;;;;;;5076000;28;20063;-59
2021/03/25 00:12:58;;;;;;;56.83;19.80;;;;;;;;;;5076290;28;20056;-59
2021/03/25 00:15:25;;;;;;;60.30;20.13;;;;;;;;;;5067672;28;20098;-59
2021/03/25 00:17:51;;;;;;;56.90;19.48;;;;;;;;;;5063841;28;20098;-58
2021/03/25 00:20:18;;;;;;;73.18;20.52;;;;;;;;;;5067185;28;20125;-59
2021/03/25 00:22:45;;;;;;;70.17;20.50;;;;;;;;;;5064642;28;20044;-59
2021/03/25 00:25:13;;;;;;;70.80;21.50;;;;;;;;;;5065387;28;20325;-58
2021/03/25 00:27:40;;;;;;;75.63;20.75;;;;;;;;;;5065876;28;20052;-59
2021/03/25 00:30:08;;;;;;;70.18;21.67;;;;;;;;;;5067151;28;20223;-58
2021/03/25 00:32:34;;;;;;;64.25;19.85;;;;;;;;;;5060528;28;20519;-58
2021/03/25 00:35:01;;;;;;;51.88;18.67;;;;;;;;;;5072127;28;20123;-58
2021/03/25 00:37:27;;;;;;;58.13;19.85;;;;;;;;;;5049379;28;20388;-58
2021/03/25 00:39:55;;;;;;;56.80;18.48;;;;;;;;;;5064339;28;20045;-59
2021/03/25 00:42:21;;;;;;;55.60;18.23;;;;;;;;;;5066144;28;20115;-59
2021/03/25 00:44:47;;;;;;;55.40;17.42;;;;;;;;;;5063529;28;20044;-59
2021/03/25 00:47:13;;;;;;;57.15;16.98;;;;;;;;;;5069091;28;20132;-59
2021/03/25 00:49:40;;;;;;;47.35;16.08;;;;;;;;;;5062500;28;20123;-58
2021/03/25 00:52:07;;;;;;;56.45;16.42;;;;;;;;;;5063104;28;20044;-58
2021/03/25 00:54:36;;;;;;;51.08;15.07;;;;;;;;;;5063539;28;20515;-58
2021/03/25 00:57:02;;;;;;;53.92;16.90;;;;;;;;;;5046933;28;20495;-58
2021/03/25 00:59:29;;;;;;;57.35;16.60;;;;;;;;;;5067889;28;20048;-58
2021/03/25 01:01:55;;;;;;;61.88;17.15;;;;;;;;;;5071457;28;20044;-59
2021/03/25 01:04:22;;;;;;;70.35;18.85;;;;;;;;;;5065952;28;20090;-58
2021/03/25 01:06:48;;;;;;;60.20;19.55;;;;;;;;;;5066603;28;20040;-59
2021/03/25 01:09:19;;;;;;;65.05;17.88;;;;;;;;;;5069821;28;20500;-59
2021/03/25 01:11:46;;;;;;;69.55;19.98;;;;;;;;;;5071717;28;20131;-58
2021/03/25 01:14:12;;;;;;;69.47;17.95;;;;;;;;;;5050127;28;20047;-58
2021/03/25 01:16:41;;;;;;;67.90;20.10;;;;;;;;;;5050344;28;20555;-59
2021/03/25 01:19:09;;;;;;;61.03;19.92;;;;;;;;;;5064024;28;20039;-59
2021/03/25 01:21:37;;;;;;;51.47;17.02;;;;;;;;;;5063239;28;20063;-58
2021/03/25 01:24:05;;;;;;;51.78;14.05;;;;;;;;;;5044484;28;20065;-58
2021/03/25 01:26:31;;;;;;;72.80;17.75;;;;;;;;;;5067640;28;20084;-58
2021/03/25 01:29:00;;;;;;;55.10;16.67;;;;;;;;;;5052050;28;20059;-58
2021/03/25 01:31:30;;;;;;;61.58;17.23;;;;;;;;;;5046741;28;20049;-59
2021/03/25 01:34:00;;;;;;;68.53;18.13;;;;;;;;;;5051764;28;20044;-58
2021/03/25 01:36:27;;;;;;;60.92;17.95;;;;;;;;;;5060608;28;20550;-58
2021/03/25 01:38:53;;;;;;;59.28;18.35;;;;;;;;;;5066923;28;20086;-59
2021/03/25 01:41:26;;;;;;;70.40;18.58;;;;;;;;;;5046939;28;20048;-58
2021/03/25 01:43:53;;;;;;;65.50;18.48;;;;;;;;;;5049483;28;20032;-59
2021/03/25 01:46:33;;;;;;;45.27;13.93;;;;;;;;;;5045570;28;20041;-58
2021/03/25 01:49:03;;;;;;;71.85;19.98;;;;;;;;;;5048150;28;20044;-57
2021/03/25 01:51:52;;;;;;;70.15;19.52;;;;;;;;;;5052794;28;20040;-59
2021/03/25 01:54:42;;;;;;;71.10;18.88;;;;;;;;;;5050848;28;20079;-59
2021/03/25 01:57:42;;;;;;;68.97;19.60;;;;;;;;;;5064365;28;20098;-59
2021/03/25 02:00:14;;;;;;;80.25;22.02;;;;;;;;;;4991439;28;20048;-58
2021/03/25 02:03:02;;;;;;;74.15;20.17;;;;;;;;;;5066907;28;20047;-58
2021/03/25 02:05:51;;;;;;;69.80;19.70;;;;;;;;;;5058935;28;20076;-59
2021/03/25 02:08:18;;;;;;;63.40;18.15;;;;;;;;;;5042094;28;20048;-58
2021/03/25 02:10:50;;;;;;;67.18;19.23;;;;;;;;;;5048223;28;20231;-58
2021/03/25 02:13:33;;;;;;;68.85;18.65;;;;;;;;;;5055729;28;20057;-58
2021/03/25 02:16:05;;;;;;;76.88;18.13;;;;;;;;;;5046240;28;20040;-58
2021/03/25 02:19:06;;;;;;;58.70;17.17;;;;;;;;;;5056584;28;20041;-59
2021/03/25 02:21:48;;;;;;;64.65;17.02;;;;;;;;;;5037906;28;20075;-58
2021/03/25 02:24:28;;;;;;;61.90;15.13;;;;;;;;;;5063182;28;20040;-58
2021/03/25 02:27:17;;;;;;;69.10;17.45;;;;;;;;;;5041894;28;20048;-58
2021/03/25 02:30:02;;;;;;;67.43;15.85;;;;;;;;;;5049330;28;20087;-58
2021/03/25 02:32:58;;;;;;;59.08;15.40;;;;;;;;;;5041436;28;20044;-58
2021/03/25 02:35:31;;;;;;;;;;;;;;;;;;5061048;28;20403;-58
2021/03/25 02:38:01;;;;;;;47.35;12.57;;;;;;;;;;5050384;28;20334;-59
2021/03/25 02:40:35;;;;;;;52.55;12.07;;;;;;;;;;5064507;28;20059;-58
2021/03/25 02:43:12;;;;;;;38.22;12.77;;;;;;;;;;5065699;28;20480;-58
2021/03/25 02:45:42;;;;;;;48.45;13.43;;;;;;;;;;5045185;28;20176;-58
2021/03/25 02:48:12;;;;;;;48.45;11.05;;;;;;;;;;5066727;28;20040;-58
2021/03/25 02:50:48;;;;;;;53.95;13.15;;;;;;;;;;5065008;28;20032;-57
2021/03/25 02:53:18;;;;;;;57.88;12.18;;;;;;;;;;5063147;28;20044;-58
2021/03/25 02:55:44;;;;;;;52.58;12.55;;;;;;;;;;5071381;28;20135;-58
2021/03/25 02:58:22;;;;;;;41.17;10.25;;;;;;;;;;5052385;28;20041;-59
2021/03/25 03:00:54;;;;;;;49.75;11.20;;;;;;;;;;5069330;28;20085;-58
2021/03/25 03:03:22;;;;;;;49.33;12.15;;;;;;;;;;5065178;28;20052;-59
2021/03/25 03:06:15;;;;;;;50.50;11.80;;;;;;;;;;5050369;28;20132;-59
2021/03/25 03:08:47;;;;;;;53.83;12.10;;;;;;;;;;5063771;28;20150;-59
2021/03/25 03:11:18;;;;;;;44.97;11.55;;;;;;;;;;5048332;28;20127;-58
2021/03/25 03:13:49;;;;;;;53.45;12.25;;;;;;;;;;5045643;28;20049;-58
2021/03/25 03:16:21;;;;;;;56.38;11.85;;;;;;;;;;5054658;28;20458;-58
2021/03/25 03:19:09;;;;;;;43.60;11.00;;;;;;;;;;5058567;28;20047;-58
2021/03/25 03:21:44;;;;;;;54.22;10.75;;;;;;;;;;5054003;28;20059;-58
2021/03/25 03:24:29;;;;;;;48.00;11.57;;;;;;;;;;5069237;28;20062;-58
2021/03/25 03:27:39;;;;;;;53.80;10.27;;;;;;;;;;5055032;28;20066;-58
2021/03/25 03:30:10;;;;;;;44.08;10.25;;;;;;;;;;5012287;28;20047;-59
2021/03/25 03:32:53;;;;;;;51.97;11.13;;;;;;;;;;5053527;28;20829;-58
2021/03/25 03:35:25;;;;;;;51.15;11.45;;;;;;;;;;5037661;28;20096;-58
2021/03/25 03:37:57;;;;;;;47.15;10.85;;;;;;;;;;5071130;28;20043;-58
2021/03/25 03:40:26;;;;;;;38.70;10.30;;;;;;;;;;5052386;28;20033;-59
2021/03/25 03:42:58;;;;;;;50.47;10.57;;;;;;;;;;5065327;28;20131;-58
2021/03/25 03:45:27;;;;;;;52.03;11.07;;;;;;;;;;5070585;28;20056;-59
2021/03/25 03:48:26;;;;;;;39.72;9.40;;;;;;;;;;5052292;28;20133;-58
2021/03/25 03:50:54;;;;;;;53.53;10.70;;;;;;;;;;5052095;28;20127;-58
2021/03/25 03:53:24;;;;;;;51.90;9.30;;;;;;;;;;5052233;28;20041;-59
2021/03/25 03:55:57;;;;;;;35.17;8.40;;;;;;;;;;5066192;28;20073;-59
2021/03/25 03:58:26;;;;;;;43.35;10.02;;;;;;;;;;5045756;28;20451;-58
2021/03/25 04:00:58;;;;;;;39.80;10.15;;;;;;;;;;5050241;28;20497;-58
2021/03/25 04:03:30;;;;;;;61.83;11.07;;;;;;;;;;5051771;28;20693;-59
2021/03/25 04:06:11;;;;;;;50.38;10.07;;;;;;;;;;5066654;28;20048;-58
2021/03/25 04:09:00;;;;;;;59.47;11.60;;;;;;;;;;5061040;28;20051;-58
2021/03/25 04:11:38;;;;;;;50.70;10.90;;;;;;;;;;5048104;28;20051;-59
2021/03/25 04:14:23;;;;;;;48.83;10.45;;;;;;;;;;5066304;28;20223;-58
2021/03/25 04:17:01;;;;;;;51.80;9.18;;;;;;;;;;5060167;28;20060;-58
2021/03/25 04:19:32;;;;;;;40.20;9.20;;;;;;;;;;5047422;28;20098;-59
2021/03/25 04:22:17;;;;;;;42.60;10.35;;;;;;;;;;5053120;28;20045;-58
2021/03/25 04:24:46;;;;;;;54.90;10.40;;;;;;;;;;5067948;28;20048;-58
2021/03/25 04:27:15;;;;;;;44.45;10.20;;;;;;;;;;5049182;28;20049;-58
2021/03/25 04:29:54;;;;;;;48.83;10.52;;;;;;;;;;5062713;28;20055;-58
2021/03/25 04:32:21;;;;;;;50.58;10.50;;;;;;;;;;5063638;28;20045;-58
2021/03/25 04:34:48;;;;;;;55.28;12.23;;;;;;;;;;5059965;28;20145;-59
2021/03/25 04:37:15;;;;;;;28.35;7.57;;;;;;;;;;5068494;28;20488;-58
2021/03/25 04:39:43;;;;;;;46.55;10.15;;;;;;;;;;5067616;28;20055;-58
2021/03/25 04:42:09;;;;;;;46.60;10.40;;;;;;;;;;5061364;28;20109;-58
2021/03/25 04:44:52;;;;;;;48.38;11.07;;;;;;;;;;5064223;28;20576;-58
2021/03/25 04:47:22;;;;;;;57.83;10.93;;;;;;;;;;5057350;28;20098;-59
2021/03/25 04:49:51;;;;;;;58.92;9.82;;;;;;;;;;5069304;28;20040;-58
2021/03/25 04:52:22;;;;;;;58.95;13.15;;;;;;;;;;5069313;28;20041;-58
2021/03/25 04:54:50;;;;;;;44.47;10.10;;;;;;;;;;5062050;28;20041;-58
2021/03/25 04:57:25;;;;;;;56.85;10.93;;;;;;;;;;5068451;28;20527;-59
2021/03/25 04:59:52;;;;;;;55.15;11.32;;;;;;;;;;5066682;28;20041;-58
2021/03/25 05:02:18;;;;;;;48.30;10.13;;;;;;;;;;5067550;28;20044;-58
2021/03/25 05:04:46;;;;;;;58.83;11.32;;;;;;;;;;5069338;28;20075;-59
2021/03/25 05:07:15;;;;;;;54.17;11.13;;;;;;;;;;5060613;28;20045;-58
2021/03/25 05:09:41;;;;;;;45.08;10.07;;;;;;;;;;5065026;28;20040;-58
2021/03/25 05:12:12;;;;;;;52.10;9.48;;;;;;;;;;5064013;28;20051;-58
2021/03/25 05:14:38;;;;;;;53.08;11.43;;;;;;;;;;5069495;28;20123;-58
2021/03/25 05:17:19;;;;;;;44.28;9.55;;;;;;;;;;5065657;28;20541;-59
2021/03/25 05:19:52;;;;;;;49.80;10.00;;;;;;;;;;5071758;28;20037;-58
2021/03/25 05:22:21;;;;;;;50.78;9.75;;;;;;;;;;5075859;28;20040;-58
2021/03/25 05:25:06;;;;;;;40.05;8.75;;;;;;;;;;5062556;28;20127;-58
2021/03/25 05:27:50;;;;;;;44.95;9.02;;;;;;;;;;5060466;28;20080;-58
2021/03/25 05:30:19;;;;;;;43.88;8.20;;;;;;;;;;5065045;28;20044;-58
2021/03/25 05:32:46;;;;;;;40.88;9.90;;;;;;;;;;5047838;28;20040;-59
2021/03/25 05:35:14;;;;;;;39.72;8.00;;;;;;;;;;5061539;28;20040;-58
2021/03/25 05:37:45;;;;;;;38.85;8.35;;;;;;;;;;5063528;28;20049;-58
2021/03/25 05:40:28;;;;;;;46.55;9.82;;;;;;;;;;5063990;28;20099;-58
2021/03/25 05:43:02;;;;;;;37.55;8.30;;;;;;;;;;5050088;28;20527;-58
2021/03/25 05:45:32;;;;;;;43.63;8.63;;;;;;;;;;5063552;28;20052;-57
2021/03/25 05:48:18;;;;;;;40.70;8.65;;;;;;;;;;5064666;28;20040;-58
2021/03/25 05:50:50;;;;;;;53.30;9.07;;;;;;;;;;5060661;28;20056;-58
2021/03/25 05:53:27;;;;;;;40.42;9.25;;;;;;;;;;5064140;28;20483;-58
2021/03/25 05:55:57;;;;;;;38.95;9.18;;;;;;;;;;5064824;28;20041;-59
2021/03/25 05:58:34;;;;;;;43.30;9.05;;;;;;;;;;5068583;28;20044;-58
2021/03/25 06:01:03;;;;;;;41.45;9.77;;;;;;;;;;5061691;28;20040;-58
2021/03/25 06:03:32;;;;;;;31.13;8.90;;;;;;;;;;5066050;28;20059;-58
2021/03/25 06:05:59;;;;;;;37.40;10.13;;;;;;;;;;5076851;28;20056;-58
2021/03/25 06:08:32;;;;;;;33.30;10.30;;;;;;;;;;5075854;28;20094;-58
2021/03/25 06:11:04;;;;;;;42.38;9.30;;;;;;;;;;5072077;28;20036;-58
2021/03/25 06:13:38;;;;;;;30.65;8.93;;;;;;;;;;5068900;28;20044;-58
2021/03/25 06:16:16;;;;;;;40.70;10.07;;;;;;;;;;5069197;28;20070;-59
2021/03/25 06:18:48;;;;;;;49.42;9.02;;;;;;;;;;5066155;28;20049;-58
2021/03/25 06:21:27;;;;;;;44.40;9.90;;;;;;;;;;5070857;28;20060;-57
2021/03/25 06:23:53;;;;;;;35.28;9.25;;;;;;;;;;5062963;28;20116;-58
2021/03/25 06:26:38;;;;;;;54.08;10.15;;;;;;;;;;5070274;28;20105;-57
2021/03/25 06:29:09;;;;;;;39.40;9.45;;;;;;;;;;5073403;28;20040;-58
2021/03/25 06:31:35;;;;;;;36.13;12.45;;;;;;;;;;5070524;28;20116;-58
2021/03/25 06:34:01;;;;;;;44.42;11.35;;;;;;;;;;5064961;28;20499;-58
2021/03/25 06:36:46;;;;;;;50.60;11.57;;;;;;;;;;5061231;28;20068;-58
2021/03/25 06:39:16;;;;;;;28.48;10.30;;;;;;;;;;5068837;28;20055;-58
2021/03/25 06:42:01;;;;;;;35.05;10.55;;;;;;;;;;5055463;28;20049;-58
2021/03/25 06:44:34;;;;;;;42.03;12.50;;;;;;;;;;5069058;28;20045;-58
2021/03/25 06:47:04;;;;;;;42.53;10.98;;;;;;;;;;5077778;28;20712;-58
2021/03/25 06:49:38;;;;;;;37.10;10.07;;;;;;;;;;5072685;28;20068;-58
2021/03/25 06:52:27;;;;;;;44.20;10.70;;;;;;;;;;5068967;28;20044;-58
2021/03/25 06:55:05;;;;;;;48.85;13.75;;;;;;;;;;5057873;28;20481;-59
2021/03/25 06:57:37;;;;;;;45.50;13.87;;;;;;;;;;5068281;28;20045;-58
2021/03/25 07:00:03;;;;;;;46.83;12.52;;;;;;;;;;5066976;28;20082;-59
2021/03/25 07:02:32;;;;;;;46.95;14.68;;;;;;;;;;5070298;28;20041;-59
2021/03/25 07:04:59;;;;;;;42.13;12.68;;;;;;;;;;5073050;28;20041;-59
2021/03/25 07:07:32;;;;;;;51.78;14.68;;;;;;;;;;5070534;28;20040;-58
2021/03/25 07:09:58;;;;;;;47.13;15.38;;;;;;;;;;5071640;28;20094;-59
2021/03/25 07:12:31;;;;;;;52.83;15.15;;;;;;;;;;5063815;28;20052;-58
2021/03/25 07:14:58;;;;;;;45.83;15.73;;;;;;;;;;5073008;28;20109;-58
2021/03/25 07:17:43;;;;;;;47.50;14.60;;;;;;;;;;5070758;28;20044;-59
2021/03/25 07:20:27;;;;;;;42.08;14.77;;;;;;;;;;5069856;28;20047;-58
2021/03/25 07:23:01;;;;;;;54.25;15.02;;;;;;;;;;5067192;28;20056;-59
2021/03/25 07:25:29;;;;;;;43.17;15.15;;;;;;;;;;5073646;28;20060;-58
2021/03/25 07:27:56;;;;;;;52.42;14.43;;;;;;;;;;5072910;28;20131;-58
2021/03/25 07:30:41;;;;;;;55.47;16.73;;;;;;;;;;5069742;28;20076;-58
2021/03/25 07:33:13;;;;;;;45.20;13.32;;;;;;;;;;5068573;28;20550;-58
2021/03/25 07:35:41;;;;;;;48.15;15.77;;;;;;;;;;5066602;28;20075;-59
2021/03/25 07:38:28;;;;;;;45.78;16.92;;;;;;;;;;5072172;28;20510;-58
2021/03/25 07:41:14;;;;;;;47.90;16.55;;;;;;;;;;5068786;28;20056;-58
2021/03/25 07:44:07;;;;;;;47.90;15.73;;;;;;;;;;5052916;28;20508;-58
2021/03/25 07:46:35;;;;;;;44.00;15.48;;;;;;;;;;5068346;28;20074;-58
2021/03/25 07:49:06;;;;;;;41.28;14.88;;;;;;;;;;5071724;28;20072;-58
2021/03/25 07:51:43;;;;;;;45.47;16.60;;;;;;;;;;5070799;28;20063;-58
2021/03/25 07:54:11;;;;;;;37.40;13.75;;;;;;;;;;5067386;28;20446;-58
2021/03/25 07:56:51;;;;;;;42.88;14.60;;;;;;;;;;5071069;28;20062;-58
2021/03/25 07:59:28;;;;;;;42.97;15.15;;;;;;;;;;5066667;28;20041;-59
2021/03/25 08:01:54;;;;;;;49.72;14.30;;;;;;;;;;5065579;28;20056;-58
2021/03/25 08:04:28;;;;;;;43.95;14.43;;;;;;;;;;5065681;28;20584;-58
2021/03/25 08:07:08;;;;;;;52.20;16.17;;;;;;;;;;5074940;28;20067;-58
2021/03/25 08:09:47;;;;;;;42.50;15.57;;;;;;;;;;5066448;28;20045;-58
2021/03/25 08:12:30;;;;;;;45.05;14.80;;;;;;;;;;5071527;28;20050;-58
2021/03/25 08:15:15;;;;;;;49.95;16.20;;;;;;;;;;5070332;28;20098;-58
2021/03/25 08:17:42;;;;;;;43.28;15.57;;;;;;;;;;5062088;28;20095;-58
2021/03/25 08:20:12;;;;;;;52.30;16.25;;;;;;;;;;5066482;28;20036;-59
2021/03/25 08:22:48;;;;;;;42.90;15.30;;;;;;;;;;5062208;28;20044;-58
2021/03/25 08:25:14;;;;;;;43.90;15.35;;;;;;;;;;5070542;28;20608;-59
2021/03/25 08:27:50;;;;;;;43.35;15.43;;;;;;;;;;5065887;28;20588;-59
2021/03/25 08:30:35;;;;;;;44.63;14.52;;;;;;;;;;5066808;28;20044;-58
2021/03/25 08:33:04;;;;;;;43.70;15.82;;;;;;;;;;5072024;28;20047;-59
2021/03/25 08:35:33;;;;;;;38.90;15.48;;;;;;;;;;5053375;28;20056;-59
2021/03/25 08:38:26;;;;;;;48.50;15.43;;;;;;;;;;5073404;28;20055;-58
2021/03/25 08:40:55;;;;;;;36.40;15.30;;;;;;;;;;5062899;28;20041;-59
2021/03/25 08:43:41;;;;;;;36.13;14.27;;;;;;;;;;5064526;28;20053;-59
2021/03/25 08:46:07;;;;;;;38.88;16.23;;;;;;;;;;5061505;28;20053;-59
2021/03/25 08:48:43;;;;;;;33.80;14.48;;;;;;;;;;5065742;28;20128;-59
2021/03/25 08:51:12;;;;;;;45.42;15.85;;;;;;;;;;5068709;28;20048;-58
2021/03/25 08:53:40;;;;;;;38.53;14.43;;;;;;;;;;5062223;28;20489;-59
2021/03/25 08:56:25;;;;;;;39.55;14.82;;;;;;;;;;5053683;28;20071;-59
2021/03/25 08:58:54;;;;;;;38.47;14.80;;;;;;;;;;5064900;28;20798;-59
2021/03/25 09:01:24;;;;;;;41.40;15.00;;;;;;;;;;5052973;28;20117;-59
2021/03/25 09:03:56;;;;;;;36.75;14.13;;;;;;;;;;5069611;28;20110;-58
2021/03/25 09:06:24;;;;;;;39.30;14.30;;;;;;;;;;5069355;28;20044;-58
2021/03/25 09:08:54;;;;;;;40.78;12.90;;;;;;;;;;5070442;28;20052;-59
2021/03/25 09:11:20;;;;;;;31.67;12.40;;;;;;;;;;5063045;28;20506;-60
2021/03/25 09:13:55;;;;;;;36.35;12.18;;;;;;;;;;5065563;28;20063;-58
2021/03/25 09:16:34;;;;;;;30.83;12.25;;;;;;;;;;5066087;28;20048;-59
2021/03/25 09:19:02;;;;;;;29.08;10.43;;;;;;;;;;5069063;28;20055;-59
2021/03/25 09:21:29;;;;;;;26.33;9.88;;;;;;;;;;5061324;28;20099;-59
2021/03/25 09:24:01;;;;;;;21.50;8.80;;;;;;;;;;5068391;28;20128;-59
2021/03/25 09:26:43;;;;;;;28.15;8.60;;;;;;;;;;5072933;28;20139;-59
2021/03/25 09:29:12;;;;;;;24.90;8.23;;;;;;;;;;5068958;28;20036;-59
2021/03/25 09:31:39;;;;;;;24.05;9.38;;;;;;;;;;5053541;28;20411;-59
2021/03/25 09:34:12;;;;;;;36.33;9.48;;;;;;;;;;5068384;28;20071;-59
2021/03/25 09:36:43;;;;;;;32.20;9.77;;;;;;;;;;5068487;28;20453;-59
2021/03/25 09:39:09;;;;;;;23.35;8.75;;;;;;;;;;5072757;28;20049;-59
2021/03/25 09:41:35;;;;;;;28.65;8.80;;;;;;;;;;5070165;28;20401;-59
2021/03/25 09:44:11;;;;;;;27.40;8.20;;;;;;;;;;5071747;28;20094;-59
2021/03/25 09:46:38;;;;;;;25.70;8.68;;;;;;;;;;5074053;28;20032;-59
2021/03/25 09:49:20;;;;;;;27.38;9.07;;;;;;;;;;5067492;28;20047;-59
2021/03/25 09:51:48;;;;;;;27.38;10.35;;;;;;;;;;5065249;28;20097;-59
2021/03/25 09:54:14;;;;;;;;;;;;;;;;;;5070639;28;20127;-59
2021/03/25 09:56:40;;;;;;;25.30;9.68;;;;;;;;;;5063176;28;20045;-59
2021/03/25 09:59:27;;;;;;;21.80;8.45;;;;;;;;;;5068954;28;20670;-59
2021/03/25 10:01:58;;;;;;;30.02;8.77;;;;;;;;;;5066824;28;20053;-59
2021/03/25 10:04:27;;;;;;;26.80;8.30;;;;;;;;;;5065740;28;20447;-59
2021/03/25 10:07:00;;;;;;;21.38;8.93;;;;;;;;;;5066907;28;20507;-59
2021/03/25 10:09:45;;;;;;;25.83;9.93;;;;;;;;;;5066773;28;20546;-59
2021/03/25 10:12:11;;;;;;;32.38;10.38;;;;;;;;;;5069189;28;20040;-59
2021/03/25 10:14:46;;;;;;;32.20;10.60;;;;;;;;;;5062199;28;20075;-59
2021/03/25 10:17:31;;;;;;;36.63;11.30;;;;;;;;;;5068081;28;20040;-59
2021/03/25 10:19:58;;;;;;;32.47;11.45;;;;;;;;;;5063779;28;20487;-59
2021/03/25 10:22:24;;;;;;;37.30;12.73;;;;;;;;;;5067051;28;20037;-59
2021/03/25 10:24:52;;;;;;;40.65;12.57;;;;;;;;;;5067467;28;20071;-59
2021/03/25 10:27:34;;;;;;;40.83;12.43;;;;;;;;;;5061903;28;20144;-59
2021/03/25 10:30:19;;;;;;;36.78;12.73;;;;;;;;;;5061170;28;20049;-58
2021/03/25 10:32:45;;;;;;;36.22;13.23;;;;;;;;;;5074644;28;20041;-59
2021/03/25 10:35:17;;;;;;;38.80;12.25;;;;;;;;;;5067470;28;20488;-59
2021/03/25 10:37:46;;;;;;;33.78;11.50;;;;;;;;;;5068363;28;20047;-59
2021/03/25 10:40:18;;;;;;;32.33;11.60;;;;;;;;;;5065654;28;20048;-59
2021/03/25 10:42:53;;;;;;;31.88;12.63;;;;;;;;;;5069400;28;20044;-59
2021/03/25 10:45:25;;;;;;;30.00;11.45;;;;;;;;;;5069079;28;20040;-59
2021/03/25 10:48:07;;;;;;;33.65;11.75;;;;;;;;;;5063522;28;20052;-59
2021/03/25 10:50:53;;;;;;;36.40;12.07;;;;;;;;;;5064195;28;20037;-58
2021/03/25 10:53:22;;;;;;;37.00;12.38;;;;;;;;;;5068911;28;20348;-59
2021/03/25 10:55:49;;;;;;;41.47;14.68;;;;;;;;;;5069554;28;20072;-59
2021/03/25 10:58:19;;;;;;;33.28;12.70;;;;;;;;;;5066709;28;20078;-59
2021/03/25 11:00:45;;;;;;;38.35;12.80;;;;;;;;;;5058629;28;20032;-59
2021/03/25 11:03:19;;;;;;;41.40;15.18;;;;;;;;;;5075706;28;20050;-59
2021/03/25 11:05:54;;;;;;;40.85;14.40;;;;;;;;;;5064951;28;20078;-59
2021/03/25 11:08:40;;;;;;;39.63;15.35;;;;;;;;;;5078789;28;20055;-58
2021/03/25 11:11:10;;;;;;;44.42;15.95;;;;;;;;;;5067494;28;20599;-58
2021/03/25 11:13:37;;;;;;;43.95;15.60;;;;;;;;;;5072935;28;20040;-58
2021/03/25 11:16:08;;;;;;;44.85;16.10;;;;;;;;;;5065993;28;20389;-58
2021/03/25 11:18:38;;;;;;;47.15;17.08;;;;;;;;;;5071242;28;20044;-58
2021/03/25 11:21:06;;;;;;;47.15;18.48;;;;;;;;;;5068073;28;20049;-58
2021/03/25 11:23:33;;;;;;;48.28;17.00;;;;;;;;;;5070603;28;20051;-58
2021/03/25 11:26:02;;;;;;;45.88;17.30;;;;;;;;;;5065665;28;20068;-58
2021/03/25 11:28:30;;;;;;;46.72;17.33;;;;;;;;;;5047119;28;20118;-58
2021/03/25 11:31:15;;;;;;;43.63;18.48;;;;;;;;;;5049083;28;20504;-58
2021/03/25 11:33:42;;;;;;;50.85;20.92;;;;;;;;;;5047868;28;20155;-58
2021/03/25 11:36:09;;;;;;;60.25;20.58;;;;;;;;;;5053596;28;20048;-58
2021/03/25 11:38:44;;;;;;;48.70;21.00;;;;;;;;;;5052602;28;20053;-58
2021/03/25 11:41:30;;;;;;;51.53;21.33;;;;;;;;;;5051882;28;20049;-58
2021/03/25 11:43:57;;;;;;;63.83;21.35;;;;;;;;;;5016045;28;20050;-58
2021/03/25 11:46:34;;;;;;;57.97;22.15;;;;;;;;;;5052640;28;20037;-58
2021/03/25 11:49:13;;;;;;;65.32;21.45;;;;;;;;;;5053174;28;20051;-58
2021/03/25 11:51:51;;;;;;;61.70;23.17;;;;;;;;;;5046717;28;20123;-57
2021/03/25 11:54:18;;;;;;;;;;;;;;;;;;5053138;28;20295;-58
2021/03/25 11:56:47;;;;;;;55.05;21.73;;;;;;;;;;5052639;28;20312;-58
2021/03/25 11:59:19;;;;;;;47.75;21.65;;;;;;;;;;5052280;28;20076;-58
2021/03/25 12:01:46;;;;;;;56.35;21.20;;;;;;;;;;5048104;28;20120;-58
2021/03/25 12:04:19;;;;;;;55.22;21.70;;;;;;;;;;5051229;28;20041;-58
2021/03/25 12:07:00;;;;;;;56.78;21.52;;;;;;;;;;5051024;28;20103;-58
2021/03/25 12:09:27;;;;;;;51.53;20.50;;;;;;;;;;5050203;28;20103;-58
2021/03/25 12:11:53;;;;;;;54.63;20.63;;;;;;;;;;5049147;28;20535;-58
2021/03/25 12:14:20;;;;;;;52.20;20.40;;;;;;;;;;5050783;28;20496;-58
2021/03/25 12:16:56;;;;;;;53.30;22.30;;;;;;;;;;5052684;28;20048;-58
2021/03/25 12:19:43;;;;;;;44.13;19.00;;;;;;;;;;5050406;28;20055;-58
2021/03/25 12:22:21;;;;;;;57.85;20.90;;;;;;;;;;5048810;28;20111;-58
2021/03/25 12:24:48;;;;;;;53.25;21.85;;;;;;;;;;5049356;28;20041;-58
2021/03/25 12:27:25;;;;;;;59.20;20.90;;;;;;;;;;5045315;28;20168;-58
2021/03/25 12:29:52;;;;;;;45.38;19.58;;;;;;;;;;5043657;28;20045;-58
2021/03/25 12:32:23;;;;;;;45.60;19.45;;;;;;;;;;5047936;28;20572;-58
2021/03/25 12:35:05;;;;;;;42.63;17.65;;;;;;;;;;5048039;28;20053;-58
2021/03/25 12:37:31;;;;;;;48.67;17.92;;;;;;;;;;5049086;28;20069;-58
2021/03/25 12:39:58;;;;;;;45.03;17.05;;;;;;;;;;5052577;28;20043;-58
2021/03/25 12:42:24;;;;;;;45.15;17.13;;;;;;;;;;5051443;28;20037;-58
2021/03/25 12:44:53;;;;;;;47.13;17.10;;;;;;;;;;5048973;28;20045;-58
2021/03/25 12:47:20;;;;;;;44.20;17.60;;;;;;;;;;5049690;28;20037;-58
2021/03/25 12:50:04;;;;;;;39.65;16.83;;;;;;;;;;5049763;28;20045;-58
2021/03/25 12:52:31;;;;;;;47.45;18.52;;;;;;;;;;5050905;28;20044;-58
2021/03/25 12:54:58;;;;;;;39.33;17.57;;;;;;;;;;5045104;28;20045;-58
2021/03/25 12:57:27;;;;;;;38.25;17.60;;;;;;;;;;5050598;28;20049;-59
2021/03/25 12:59:58;;;;;;;43.25;16.70;;;;;;;;;;5050490;28;20095;-58
2021/03/25 13:02:25;;;;;;;46.70;16.67;;;;;;;;;;5047725;28;20045;-58
2021/03/25 13:04:51;;;;;;;40.88;16.95;;;;;;;;;;5047167;28;20048;-58
2021/03/25 13:07:17;;;;;;;32.22;14.90;;;;;;;;;;5051593;28;20572;-58
2021/03/25 13:09:43;;;;;;;40.17;15.50;;;;;;;;;;5051351;28;20091;-58
2021/03/25 13:12:18;;;;;;;37.78;17.05;;;;;;;;;;5050248;28;20048;-58
2021/03/25 13:14:45;;;;;;;43.65;15.95;;;;;;;;;;5047769;28;20416;-58
2021/03/25 13:17:11;;;;;;;33.60;16.55;;;;;;;;;;5049370;28;20049;-58
2021/03/25 13:19:53;;;;;;;42.42;17.38;;;;;;;;;;5047394;28;20033;-58
2021/03/25 13:22:20;;;;;;;41.40;16.13;;;;;;;;;;5041597;28;20072;-57
2021/03/25 13:24:47;;;;;;;40.50;16.90;;;;;;;;;;5047788;28;20056;-58
2021/03/25 13:27:13;;;;;;;43.22;16.05;;;;;;;;;;5058020;28;20080;-58
2021/03/25 13:29:40;;;;;;;41.78;18.45;;;;;;;;;;5057617;28;20036;-58
2021/03/25 13:32:06;;;;;;;42.38;17.05;;;;;;;;;;5060486;28;20095;-57
2021/03/25 13:34:33;;;;;;;42.97;16.92;;;;;;;;;;5063992;28;20065;-58
2021/03/25 13:36:59;;;;;;;39.00;16.25;;;;;;;;;;5063785;28;20052;-58
2021/03/25 13:39:26;;;;;;;36.97;15.52;;;;;;;;;;5068071;28;20048;-58
2021/03/25 13:41:52;;;;;;;35.70;15.32;;;;;;;;;;5058305;28;20040;-57
2021/03/25 13:44:19;;;;;;;39.35;15.68;;;;;;;;;;5067993;28;20044;-58
2021/03/25 13:46:45;;;;;;;32.45;16.58;;;;;;;;;;5065639;28;20044;-58
2021/03/25 13:49:11;;;;;;;38.45;15.38;;;;;;;;;;5068897;28;20044;-58
2021/03/25 13:51:38;;;;;;;34.73;15.63;;;;;;;;;;5070504;28;20373;-58
2021/03/25 13:54:07;;;;;;;40.80;15.98;;;;;;;;;;5065986;28;20327;-58
2021/03/25 13:56:34;;;;;;;38.67;17.47;;;;;;;;;;5066026;28;20052;-58
2021/03/25 13:59:00;;;;;;;37.10;17.50;;;;;;;;;;5069864;28;20041;-58
2021/03/25 14:01:27;;;;;;;45.70;17.58;;;;;;;;;;5070796;28;20045;-58
2021/03/25 14:03:53;;;;;;;41.25;17.73;;;;;;;;;;5066384;28;20071;-58
2021/03/25 14:06:19;;;;;;;40.40;18.92;;;;;;;;;;5067455;28;20531;-58
2021/03/25 14:08:46;;;;;;;46.13;19.73;;;;;;;;;;5068223;28;20041;-58
2021/03/25 14:11:12;;;;;;;43.28;19.40;;;;;;;;;;5066565;28;20492;-58
2021/03/25 14:13:39;;;;;;;44.83;20.20;;;;;;;;;;5067490;28;20036;-58
2021/03/25 14:16:06;;;;;;;39.33;18.60;;;;;;;;;;5069017;28;20041;-58
2021/03/25 14:18:33;;;;;;;36.85;17.88;;;;;;;;;;5062520;28;20051;-58
2021/03/25 14:21:17;;;;;;;36.38;17.90;;;;;;;;;;5069131;28;20067;-58
2021/03/25 14:23:43;;;;;;;45.40;20.08;;;;;;;;;;5050587;28;20099;-58
2021/03/25 14:26:10;;;;;;;43.63;19.02;;;;;;;;;;5070163;28;20051;-58
2021/03/25 14:28:36;;;;;;;37.65;18.95;;;;;;;;;;5069026;28;20066;-58
2021/03/25 14:31:02;;;;;;;34.05;18.40;;;;;;;;;;5073376;28;20044;-58
2021/03/25 14:33:29;;;;;;;40.60;19.23;;;;;;;;;;5071605;28;20044;-58
2021/03/25 14:35:56;;;;;;;41.53;18.47;;;;;;;;;;5070423;28;20049;-58
2021/03/25 14:38:23;;;;;;;45.45;20.75;;;;;;;;;;5069309;28;20044;-58
2021/03/25 14:40:51;;;;;;;40.75;19.25;;;;;;;;;;5067554;28;20036;-58
2021/03/25 14:43:18;;;;;;;46.13;19.50;;;;;;;;;;5068364;28;20696;-58
2021/03/25 14:45:44;;;;;;;43.35;18.40;;;;;;;;;;5063607;28;20127;-58
2021/03/25 14:48:11;;;;;;;39.50;19.73;;;;;;;;;;5064671;28;20320;-58
2021/03/25 14:50:39;;;;;;;44.00;19.98;;;;;;;;;;5061569;28;20069;-58